createdAt,value
2018-07-23T00:01:48.153Z,52.60
2018-07-23T00:04:16.219Z,51.80
2018-07-23T00:06:44.293Z,54.20
2018-07-23T00:09:12.500Z,53.65
2018-07-23T00:11:40.531Z,57.80
2018-07-23T00:14:08.723Z,56.95
2018-07-23T00:16:36.809Z,57.98
2018-07-23T00:19:04.956Z,57.40
2018-07-23T00:21:33.244Z,51.88
2018-07-23T00:24:01.320Z,54.20
2018-07-23T00:26:29.377Z,52.20
2018-07-23T00:28:57.464Z,54.20
2018-07-23T00:31:25.677Z,55.73
2018-07-23T00:33:53.794Z,56.80
2018-07-23T00:36:22.109Z,57.80
2018-07-23T00:38:50.173Z,53.10
2018-07-23T00:41:18.361Z,53.23
2018-07-23T00:43:46.411Z,58.95
2018-07-23T00:46:14.469Z,57.37
2018-07-23T00:48:43.048Z,55.60
2018-07-23T00:51:10.825Z,53.85
2018-07-23T00:53:39.039Z,53.08
2018-07-23T00:56:07.098Z,54.10
2018-07-23T00:58:35.194Z,52.15
2018-07-23T01:01:03.220Z,51.55
2018-07-23T01:03:31.308Z,49.00
2018-07-23T01:05:59.493Z,47.67
2018-07-23T01:08:27.564Z,52.08
2018-07-23T01:10:55.643Z,52.47
2018-07-23T01:13:23.722Z,53.20
2018-07-23T01:15:51.776Z,54.27
2018-07-23T01:18:19.828Z,52.47
2018-07-23T01:20:47.936Z,48.90
2018-07-23T01:23:16.024Z,49.65
2018-07-23T01:25:44.050Z,51.95
2018-07-23T01:28:12.413Z,50.60
2018-07-23T01:30:40.319Z,49.73
2018-07-23T01:33:08.476Z,50.35
2018-07-23T01:35:36.581Z,50.67
2018-07-23T01:38:04.723Z,53.55
2018-07-23T01:40:32.916Z,50.75
2018-07-23T01:43:01.201Z,51.53
2018-07-23T01:45:29.356Z,52.17
2018-07-23T01:47:58.056Z,49.33
2018-07-23T01:50:26.207Z,49.93
2018-07-23T01:52:54.014Z,53.25
2018-07-23T01:55:22.092Z,54.05
2018-07-23T01:57:50.212Z,56.15
2018-07-23T02:00:18.123Z,61.28
2018-07-23T02:02:46.377Z,58.20
2018-07-23T02:05:14.558Z,58.23
2018-07-23T02:07:42.652Z,62.62
2018-07-23T02:10:10.712Z,60.30
2018-07-23T02:12:39.043Z,59.38
2018-07-23T02:15:07.171Z,59.20
2018-07-23T02:17:35.236Z,60.30
2018-07-23T02:20:04.081Z,54.80
2018-07-23T02:22:32.217Z,54.20
2018-07-23T02:25:00.263Z,57.75
2018-07-23T02:27:28.393Z,57.30
2018-07-23T02:29:56.400Z,54.95
2018-07-23T02:32:24.510Z,57.38
2018-07-23T02:34:52.657Z,58.05
2018-07-23T02:37:20.773Z,56.93
2018-07-23T02:39:48.690Z,60.38
2018-07-23T02:42:16.704Z,56.90
2018-07-23T02:44:44.882Z,59.15
2018-07-23T02:47:13.014Z,56.95
2018-07-23T02:49:41.233Z,58.65
2018-07-23T02:52:18.204Z,58.38
2018-07-23T02:54:49.306Z,61.80
2018-07-23T02:57:25.420Z,62.40
2018-07-23T02:59:56.337Z,62.95
2018-07-23T03:02:26.590Z,60.83
2018-07-23T03:04:57.809Z,61.35
2018-07-23T03:07:26.072Z,64.97
2018-07-23T03:09:54.249Z,67.25
2018-07-23T03:12:22.765Z,66.65
2018-07-23T03:14:51.061Z,62.43
2018-07-23T03:17:19.102Z,67.53
2018-07-23T03:19:47.180Z,70.20
2018-07-23T03:22:15.261Z,69.20
2018-07-23T03:24:43.314Z,68.95
2018-07-23T03:27:11.677Z,73.30
2018-07-23T03:29:39.687Z,71.90
2018-07-23T03:32:07.844Z,73.40
2018-07-23T03:34:35.803Z,72.82
2018-07-23T03:37:04.019Z,69.10
2018-07-23T03:39:32.190Z,70.37
2018-07-23T03:42:00.252Z,77.00
2018-07-23T03:44:28.440Z,68.92
2018-07-23T03:46:56.581Z,77.70
2018-07-23T03:49:24.673Z,75.62
2018-07-23T03:51:52.933Z,73.42
2018-07-23T03:54:21.032Z,69.27
2018-07-23T03:56:49.102Z,70.32
2018-07-23T03:59:17.191Z,69.42
2018-07-23T04:01:45.359Z,64.15
2018-07-23T04:04:16.229Z,65.70
2018-07-23T04:06:46.144Z,63.92
2018-07-23T04:09:14.148Z,62.30
2018-07-23T04:11:42.245Z,59.75
2018-07-23T04:14:13.085Z,65.87
2018-07-23T04:16:41.088Z,59.18
2018-07-23T04:19:09.342Z,63.68
2018-07-23T04:21:37.508Z,60.23
2018-07-23T04:24:05.735Z,66.92
2018-07-23T04:26:33.859Z,64.45
2018-07-23T04:29:01.907Z,69.42
2018-07-23T04:31:29.722Z,65.90
2018-07-23T04:33:57.867Z,62.75
2018-07-23T04:36:25.981Z,59.75
2018-07-23T04:38:54.031Z,59.75
2018-07-23T04:41:22.094Z,61.57
2018-07-23T04:43:50.178Z,64.45
2018-07-23T04:46:18.397Z,62.90
2018-07-23T04:48:46.532Z,65.70
2018-07-23T04:51:14.574Z,67.87
2018-07-23T04:53:42.652Z,68.20
2018-07-23T04:56:10.721Z,66.42
2018-07-23T04:58:38.909Z,67.62
2018-07-23T05:01:06.964Z,65.17
2018-07-23T05:03:35.164Z,66.75
2018-07-23T05:06:03.530Z,64.40
2018-07-23T05:08:31.644Z,63.40
2018-07-23T05:10:59.889Z,65.52
2018-07-23T05:13:28.074Z,64.15
2018-07-23T05:15:56.183Z,57.53
2018-07-23T05:18:24.193Z,62.80
2018-07-23T05:20:52.283Z,63.17
2018-07-23T05:23:20.364Z,62.00
2018-07-23T05:25:48.420Z,57.67
2018-07-23T05:28:16.518Z,57.27
2018-07-23T05:30:44.477Z,56.92
2018-07-23T05:33:12.675Z,51.50
2018-07-23T05:35:40.830Z,50.70
2018-07-23T05:38:08.912Z,53.23
2018-07-23T05:40:37.091Z,46.28
2018-07-23T05:43:05.466Z,47.73
2018-07-23T05:45:33.610Z,48.65
2018-07-23T05:48:01.715Z,46.08
2018-07-23T05:50:29.961Z,45.95
2018-07-23T05:52:57.964Z,42.83
2018-07-23T05:55:26.018Z,43.70
2018-07-23T05:57:54.512Z,43.70
2018-07-23T06:00:22.575Z,43.23
2018-07-23T06:02:50.675Z,43.13
2018-07-23T06:05:18.748Z,44.65
2018-07-23T06:07:46.784Z,42.67
2018-07-23T06:10:15.111Z,45.67
2018-07-23T06:12:43.235Z,44.98
2018-07-23T06:15:11.653Z,44.50
2018-07-23T06:17:39.723Z,42.10
2018-07-23T06:20:08.720Z,44.97
2018-07-23T06:22:37.058Z,42.03
2018-07-23T06:25:05.169Z,40.25
2018-07-23T06:27:33.437Z,40.77
2018-07-23T06:30:01.650Z,43.78
2018-07-23T06:32:29.765Z,42.67
2018-07-23T06:34:58.076Z,39.90
2018-07-23T06:37:26.239Z,40.60
2018-07-23T06:39:54.324Z,41.77
2018-07-23T06:42:22.396Z,40.92
2018-07-23T06:44:50.646Z,41.35
2018-07-23T06:47:18.753Z,41.97
2018-07-23T06:49:46.798Z,42.75
2018-07-23T06:52:14.894Z,47.05
2018-07-23T06:54:42.927Z,45.90
2018-07-23T06:57:10.861Z,41.10
2018-07-23T06:59:39.026Z,42.93
2018-07-23T07:02:07.164Z,41.80
2018-07-23T07:04:35.254Z,41.10
2018-07-23T07:07:03.746Z,43.08
2018-07-23T07:09:31.893Z,40.30
2018-07-23T07:11:59.979Z,41.55
2018-07-23T07:14:28.050Z,43.98
2018-07-23T07:16:56.232Z,44.90
2018-07-23T07:19:24.290Z,42.15
2018-07-23T07:21:52.497Z,40.98
2018-07-23T07:24:20.566Z,40.00
2018-07-23T07:26:48.712Z,41.40
2018-07-23T07:29:16.807Z,38.83
2018-07-23T07:31:45.098Z,39.50
2018-07-23T07:34:13.241Z,39.48
2018-07-23T07:36:41.332Z,41.13
2018-07-23T07:39:11.164Z,41.80
2018-07-23T07:41:39.366Z,41.40
2018-07-23T07:44:08.130Z,40.20
2018-07-23T07:46:36.713Z,41.92
2018-07-23T07:49:04.900Z,42.48
2018-07-23T07:51:33.148Z,42.50
2018-07-23T07:54:01.205Z,42.50
2018-07-23T07:56:29.795Z,42.62
2018-07-23T07:58:57.863Z,42.00
2018-07-23T08:01:26.092Z,42.95
2018-07-23T08:03:54.141Z,39.92
2018-07-23T08:06:22.383Z,39.78
2018-07-23T08:08:50.607Z,40.23
2018-07-23T08:11:18.679Z,39.00
2018-07-23T08:13:47.036Z,39.60
2018-07-23T08:16:15.234Z,39.10
2018-07-23T08:18:43.472Z,38.48
2018-07-23T08:21:11.565Z,37.67
2018-07-23T08:23:39.640Z,39.50
2018-07-23T08:26:07.812Z,38.98
2018-07-23T08:28:35.988Z,39.35
2018-07-23T08:31:04.267Z,42.50
2018-07-23T08:33:32.455Z,42.17
2018-07-23T08:36:00.521Z,42.93
2018-07-23T08:38:28.818Z,44.63
2018-07-23T08:40:57.186Z,44.40
2018-07-23T08:43:25.361Z,45.25
2018-07-23T08:45:53.420Z,45.85
2018-07-23T08:48:21.464Z,45.67
2018-07-23T08:50:49.567Z,45.05
2018-07-23T08:53:17.629Z,49.05
2018-07-23T08:55:45.736Z,48.35
2018-07-23T08:58:13.872Z,46.08
2018-07-23T09:00:42.068Z,47.67
2018-07-23T09:03:10.152Z,46.63
2018-07-23T09:05:38.309Z,46.23
2018-07-23T09:08:06.519Z,48.48
2018-07-23T09:10:34.578Z,45.45
2018-07-23T09:13:02.624Z,47.62
2018-07-23T09:15:30.814Z,46.30
2018-07-23T09:17:58.965Z,46.70
2018-07-23T09:20:27.073Z,47.45
2018-07-23T09:22:55.116Z,46.88
2018-07-23T09:25:26.880Z,45.95
2018-07-23T09:27:54.943Z,44.20
2018-07-23T09:30:28.393Z,45.73
2018-07-23T09:32:56.545Z,44.35
2018-07-23T09:35:24.597Z,44.18
2018-07-23T09:37:52.687Z,43.70
2018-07-23T09:40:20.831Z,42.17
2018-07-23T09:42:48.740Z,45.83
2018-07-23T09:45:16.802Z,44.40
2018-07-23T09:47:44.900Z,45.10
2018-07-23T09:50:13.183Z,45.20
2018-07-23T09:52:41.364Z,43.05
2018-07-23T09:55:09.541Z,41.15
2018-07-23T09:57:37.580Z,41.55
2018-07-23T10:00:05.853Z,40.75
2018-07-23T10:02:33.929Z,40.50
2018-07-23T10:05:02.012Z,39.05
2018-07-23T10:07:30.168Z,40.30
2018-07-23T10:09:58.366Z,38.90
2018-07-23T10:12:26.507Z,41.40
2018-07-23T10:14:54.438Z,38.95
2018-07-23T10:17:22.648Z,38.40
2018-07-23T10:19:51.111Z,35.68
2018-07-23T10:22:19.230Z,41.83
2018-07-23T10:24:47.323Z,40.00
2018-07-23T10:27:15.463Z,39.73
2018-07-23T10:29:43.780Z,35.80
2018-07-23T10:32:11.927Z,35.15
2018-07-23T10:34:40.189Z,36.70
2018-07-23T10:37:08.412Z,35.52
2018-07-23T10:39:36.550Z,37.65
2018-07-23T10:42:04.746Z,34.90
2018-07-23T10:44:32.928Z,34.95
2018-07-23T10:47:00.989Z,34.85
2018-07-23T10:49:29.074Z,34.45
2018-07-23T10:51:57.120Z,34.40
2018-07-23T10:54:25.208Z,33.18
2018-07-23T10:56:53.461Z,34.78
2018-07-23T10:59:21.775Z,32.63
2018-07-23T11:01:50.054Z,31.12
2018-07-23T11:04:18.248Z,30.40
2018-07-23T11:06:46.272Z,27.87
2018-07-23T11:09:14.484Z,33.50
2018-07-23T11:11:42.625Z,34.25
2018-07-23T11:14:10.725Z,33.80
2018-07-23T11:16:38.780Z,31.70
2018-07-23T11:19:07.084Z,32.93
2018-07-23T11:21:35.142Z,29.50
2018-07-23T11:24:03.231Z,30.52
2018-07-23T11:26:31.301Z,29.63
2018-07-23T11:28:59.382Z,29.52
2018-07-23T11:31:27.419Z,28.27
2018-07-23T11:33:55.517Z,29.30
2018-07-23T11:36:23.545Z,31.25
2018-07-23T11:38:51.356Z,31.35
2018-07-23T11:41:19.513Z,28.85
2018-07-23T11:43:47.709Z,29.42
2018-07-23T11:46:24.425Z,28.95
2018-07-23T11:48:43.965Z,25.40
2018-07-23T11:51:12.210Z,24.37
2018-07-23T11:53:40.424Z,24.70
2018-07-23T11:56:08.454Z,26.40
2018-07-23T11:58:36.781Z,26.10
2018-07-23T12:01:04.835Z,27.15
2018-07-23T12:03:32.912Z,28.98
2018-07-23T12:06:01.084Z,25.80
2018-07-23T12:08:29.227Z,25.88
2018-07-23T12:10:57.385Z,24.02
2018-07-23T12:13:25.294Z,23.20
2018-07-23T12:15:53.552Z,22.30
2018-07-23T12:18:21.758Z,21.60
2018-07-23T12:20:49.911Z,22.60
2018-07-23T12:23:18.006Z,20.43
2018-07-23T12:25:46.088Z,19.97
2018-07-23T12:28:14.120Z,21.05
2018-07-23T12:30:42.303Z,22.85
2018-07-23T12:33:10.369Z,21.60
2018-07-23T12:35:38.667Z,21.23
2018-07-23T12:38:06.722Z,21.77
2018-07-23T12:40:34.811Z,21.63
2018-07-23T12:43:02.873Z,22.10
2018-07-23T12:45:30.944Z,21.70
2018-07-23T12:47:59.082Z,21.95
2018-07-23T12:50:27.199Z,20.85
2018-07-23T12:52:55.284Z,21.15
2018-07-23T12:55:23.372Z,20.60
2018-07-23T12:57:51.534Z,19.77
2018-07-23T13:00:19.606Z,21.85
2018-07-23T13:02:47.785Z,21.90
2018-07-23T13:05:15.969Z,19.95
2018-07-23T13:07:44.018Z,20.60
2018-07-23T13:10:12.124Z,18.35
2018-07-23T13:12:40.286Z,20.68
2018-07-23T13:15:08.549Z,21.17
2018-07-23T13:17:36.734Z,20.23
2018-07-23T13:20:05.006Z,19.90
2018-07-23T13:22:33.183Z,19.52
2018-07-23T13:25:01.253Z,19.63
2018-07-23T13:27:29.405Z,19.33
2018-07-23T13:29:57.416Z,20.10
2018-07-23T13:32:25.567Z,20.85
2018-07-23T13:34:53.761Z,19.90
2018-07-23T13:37:21.805Z,20.92
2018-07-23T13:39:50.112Z,19.90
2018-07-23T13:42:18.180Z,20.13
2018-07-23T13:44:46.244Z,20.30
2018-07-23T13:47:14.542Z,20.25
2018-07-23T13:49:42.601Z,20.57
2018-07-23T13:52:10.684Z,19.47
2018-07-23T13:54:38.828Z,18.87
2018-07-23T13:57:06.925Z,20.60
2018-07-23T13:59:34.968Z,20.15
2018-07-23T14:02:03.183Z,19.17
2018-07-23T14:04:31.231Z,19.90
2018-07-23T14:06:59.445Z,19.00
2018-07-23T14:09:27.477Z,20.32
2018-07-23T14:11:55.664Z,18.98
2018-07-23T14:14:23.726Z,18.85
2018-07-23T14:16:51.946Z,18.23
2018-07-23T14:19:20.020Z,19.07
2018-07-23T14:21:48.159Z,18.55
2018-07-23T14:24:16.249Z,18.75
2018-07-23T14:26:44.514Z,18.50
2018-07-23T14:29:12.616Z,16.67
2018-07-23T14:31:41.161Z,17.02
2018-07-23T14:34:09.508Z,17.50
2018-07-23T14:36:37.510Z,17.30
2018-07-23T14:39:08.933Z,18.92
2018-07-23T14:41:37.033Z,17.57
2018-07-23T14:44:05.317Z,17.65
2018-07-23T14:46:33.514Z,18.15
2018-07-23T14:49:01.808Z,17.98
2018-07-23T14:51:30.287Z,17.15
2018-07-23T14:53:58.432Z,17.23
2018-07-23T14:56:26.659Z,18.40
2018-07-23T14:58:54.854Z,18.80
2018-07-23T15:01:22.978Z,18.35
2018-07-23T15:03:51.025Z,18.27
2018-07-23T15:06:19.148Z,19.05
2018-07-23T15:08:47.298Z,19.35
2018-07-23T15:11:15.384Z,17.98
2018-07-23T15:13:43.426Z,17.70
2018-07-23T15:16:11.533Z,18.12
2018-07-23T15:18:39.591Z,18.15
2018-07-23T15:21:07.672Z,17.42
2018-07-23T15:23:36.464Z,18.10
2018-07-23T15:26:04.549Z,17.00
2018-07-23T15:28:32.705Z,18.47
2018-07-23T15:31:00.755Z,17.83
2018-07-23T15:33:28.713Z,16.80
2018-07-23T15:35:56.676Z,17.20
2018-07-23T15:38:24.496Z,17.90
2018-07-23T15:40:52.405Z,18.17
2018-07-23T15:43:20.401Z,18.00
2018-07-23T15:45:48.291Z,19.13
2018-07-23T15:56:33.211Z,19.80
2018-07-23T15:59:01.476Z,19.00
2018-07-23T16:01:29.388Z,19.00
2018-07-23T16:03:57.868Z,18.42
2018-07-23T16:06:36.935Z,17.85
2018-07-23T16:09:21.411Z,16.30
2018-07-23T16:14:41.716Z,16.82
2018-07-23T16:22:54.160Z,15.40
2018-07-23T16:25:21.937Z,15.48
2018-07-23T16:27:49.666Z,16.40
2018-07-23T16:30:17.676Z,15.58
2018-07-23T16:32:45.620Z,15.18
2018-07-23T16:35:13.581Z,14.60
2018-07-23T16:37:41.547Z,15.07
2018-07-23T16:40:09.650Z,15.25
2018-07-23T16:42:37.640Z,15.00
2018-07-23T16:45:05.599Z,15.35
2018-07-23T16:47:33.340Z,16.12
2018-07-23T16:50:01.313Z,17.15
2018-07-23T16:52:29.262Z,17.10
2018-07-23T16:54:57.351Z,17.47
2018-07-23T16:57:25.320Z,17.07
2018-07-23T16:59:53.286Z,15.65
2018-07-23T17:02:21.320Z,16.75
2018-07-23T17:04:49.371Z,18.35
2018-07-23T17:07:17.488Z,21.68
2018-07-23T17:09:45.523Z,27.40
2018-07-23T17:12:13.544Z,23.67
2018-07-23T17:14:41.556Z,11.10
2018-07-23T17:17:09.363Z,14.23
2018-07-23T17:19:37.335Z,15.18
2018-07-23T17:22:05.311Z,19.95
2018-07-23T17:24:33.235Z,25.90
2018-07-23T17:27:01.161Z,30.50
2018-07-23T17:29:29.173Z,40.33
2018-07-23T17:31:57.092Z,32.65
2018-07-23T17:34:25.077Z,38.45
2018-07-23T17:36:53.061Z,38.20
2018-07-23T17:39:21.065Z,38.02
2018-07-23T17:41:49.553Z,34.00
2018-07-23T17:44:17.552Z,33.85
2018-07-23T17:46:45.456Z,33.73
2018-07-23T17:49:13.381Z,40.08
2018-07-23T17:51:41.344Z,36.10
2018-07-23T17:54:22.083Z,29.37
2018-07-23T17:56:50.452Z,33.88
2018-07-23T17:59:18.369Z,36.80
2018-07-23T18:01:46.305Z,33.33
2018-07-23T18:04:14.035Z,34.00
2018-07-23T18:06:41.991Z,31.27
2018-07-23T18:09:11.739Z,26.02
2018-07-23T18:11:39.692Z,24.80
2018-07-23T18:14:08.075Z,35.78
2018-07-23T18:16:36.161Z,28.35
2018-07-23T18:19:04.080Z,26.70
2018-07-23T18:21:32.010Z,27.58
2018-07-23T18:23:59.935Z,28.55
2018-07-23T18:26:28.137Z,28.30
2018-07-23T18:28:55.963Z,27.60
2018-07-23T18:31:24.958Z,25.20
2018-07-23T18:33:52.891Z,22.37
2018-07-23T18:36:20.691Z,23.30
2018-07-23T18:38:48.808Z,22.70
2018-07-23T18:41:16.651Z,23.90
2018-07-23T18:43:44.956Z,23.27
2018-07-23T18:46:12.902Z,25.08
2018-07-23T18:49:19.560Z,27.00
2018-07-23T18:51:52.423Z,26.35
2018-07-23T18:54:24.164Z,26.13
2018-07-23T18:56:56.704Z,27.30
2018-07-23T18:59:28.751Z,26.07
2018-07-23T19:02:01.015Z,27.93
2018-07-23T19:04:32.836Z,28.20
2018-07-23T19:07:04.354Z,27.48
2018-07-23T19:09:36.214Z,29.25
2018-07-23T19:12:08.489Z,28.10
2018-07-23T19:14:40.832Z,28.15
2018-07-23T19:17:14.257Z,29.42
2018-07-23T19:19:46.607Z,27.93
2018-07-23T19:22:19.066Z,28.35
2018-07-23T19:24:50.079Z,29.63
2018-07-23T19:27:22.551Z,28.47
2018-07-23T19:29:54.533Z,28.75
2018-07-23T19:32:26.723Z,27.90
2018-07-23T19:34:58.363Z,26.62
2018-07-23T19:37:29.443Z,26.80
2018-07-23T19:40:01.266Z,28.57
2018-07-23T19:42:32.844Z,27.97
2018-07-23T19:45:06.182Z,27.85
2018-07-23T19:47:37.726Z,28.20
2018-07-23T19:50:09.529Z,29.82
2018-07-23T19:52:40.537Z,29.70
2018-07-23T19:55:12.298Z,30.23
2018-07-23T19:57:43.722Z,31.70
2018-07-23T20:00:14.326Z,30.83
2018-07-23T20:02:42.055Z,31.35
2018-07-23T20:05:10.031Z,32.25
2018-07-23T20:07:37.908Z,30.13
2018-07-23T20:10:05.860Z,30.77
2018-07-23T20:12:33.778Z,25.02
2018-07-23T20:15:01.517Z,25.40
2018-07-23T20:17:37.169Z,26.70
2018-07-23T20:20:06.562Z,25.05
2018-07-23T20:22:51.254Z,27.17
2018-07-23T20:25:19.172Z,29.10
2018-07-23T20:27:47.065Z,28.98
2018-07-23T20:30:15.004Z,30.15
2018-07-23T20:32:42.986Z,29.63
2018-07-23T20:35:10.998Z,28.83
2018-07-23T20:37:38.792Z,28.90
2018-07-23T20:40:06.817Z,28.32
2018-07-23T20:42:34.725Z,24.70
2018-07-23T20:45:02.678Z,25.43
2018-07-23T20:47:30.600Z,23.98
2018-07-23T20:49:58.560Z,23.07
2018-07-23T20:52:26.536Z,23.10
2018-07-23T20:54:54.497Z,23.35
2018-07-23T20:57:22.453Z,22.40
2018-07-23T20:59:50.447Z,22.98
2018-07-23T21:02:18.405Z,21.73
2018-07-23T21:04:46.329Z,23.10
2018-07-23T21:07:14.256Z,23.35
2018-07-23T21:09:42.201Z,21.95
2018-07-23T21:12:10.181Z,20.90
2018-07-23T21:14:38.108Z,19.90
2018-07-23T21:17:06.124Z,21.77
2018-07-23T21:19:34.045Z,20.52
2018-07-23T21:22:01.998Z,20.97
2018-07-23T21:24:29.956Z,21.00
2018-07-23T21:26:57.897Z,21.75
2018-07-23T21:29:25.918Z,22.23
2018-07-23T21:31:53.880Z,21.33
2018-07-23T21:34:21.811Z,22.60
2018-07-23T21:36:49.704Z,21.60
2018-07-23T21:39:17.656Z,21.90
2018-07-23T21:41:45.587Z,21.80
2018-07-23T21:44:13.520Z,20.92
2018-07-23T21:46:41.536Z,21.95
2018-07-23T21:49:09.547Z,21.50
2018-07-23T21:51:37.496Z,21.15
2018-07-23T21:54:05.536Z,20.25
2018-07-23T21:56:33.432Z,19.40
2018-07-23T21:59:01.398Z,18.73
2018-07-23T22:01:29.180Z,19.80
2018-07-23T22:03:57.209Z,20.10
2018-07-23T22:06:25.235Z,19.40
2018-07-23T22:08:55.489Z,19.25
2018-07-23T22:11:23.482Z,18.63
2018-07-23T22:13:51.453Z,19.02
2018-07-23T22:16:19.395Z,17.95
2018-07-23T22:18:47.328Z,19.05
2018-07-23T22:21:15.090Z,18.95
2018-07-23T22:23:43.268Z,20.40
2018-07-23T22:26:13.061Z,19.82
2018-07-23T22:28:41.129Z,20.02
2018-07-23T22:31:09.075Z,19.65
2018-07-23T22:33:37.016Z,20.47
2018-07-23T22:36:05.424Z,21.15
2018-07-23T22:38:33.360Z,21.03
2018-07-23T22:41:01.289Z,20.70
2018-07-23T22:43:29.250Z,22.45
2018-07-23T22:45:57.207Z,22.80
2018-07-23T22:48:25.121Z,22.17
2018-07-23T22:50:52.859Z,22.62
2018-07-23T22:53:20.746Z,23.62
2018-07-23T22:55:48.693Z,22.60
2018-07-23T22:58:16.609Z,23.00
2018-07-23T23:00:44.351Z,23.50
2018-07-23T23:03:12.069Z,23.95
2018-07-23T23:05:40.002Z,24.07
2018-07-23T23:08:07.947Z,24.12
2018-07-23T23:10:35.848Z,23.90
2018-07-23T23:13:03.854Z,25.12
2018-07-23T23:15:31.805Z,24.87
2018-07-23T23:17:59.761Z,24.25
2018-07-23T23:20:27.677Z,25.37
2018-07-23T23:22:55.644Z,24.90
2018-07-23T23:25:23.698Z,24.05
2018-07-23T23:27:51.622Z,25.80
2018-07-23T23:30:19.399Z,25.80
2018-07-23T23:32:47.130Z,27.07
2018-07-23T23:35:15.109Z,25.60
2018-07-23T23:37:43.001Z,25.08
2018-07-23T23:40:10.826Z,25.97
2018-07-23T23:42:38.763Z,26.07
2018-07-23T23:45:06.805Z,25.12
2018-07-23T23:47:34.520Z,25.77
2018-07-23T23:50:02.512Z,25.55
2018-07-23T23:52:30.522Z,25.82
2018-07-23T23:54:58.412Z,26.48
2018-07-23T23:57:26.332Z,26.50
2018-07-23T23:59:54.220Z,27.85
